sensor_id;sensor_type;location;lat;lon;timestamp;P1;durP1;ratioP1;P2;durP2;ratioP2
33876;SDS011;20166;51.738;7.158;2024-01-27T00:00:39;2.60;;;1.70;;
33876;SDS011;20166;51.738;7.158;2024-01-27T00:03:26;2.20;;;1.30;;
33876;SDS011;20166;51.738;7.158;2024-01-27T00:06:12;2.63;;;1.80;;
33876;SDS011;20166;51.738;7.158;2024-01-27T00:09:00;6.27;;;1.43;;
33876;SDS011;20166;51.738;7.158;2024-01-27T00:11:46;1.63;;;1.53;;
33876;SDS011;20166;51.738;7.158;2024-01-27T00:14:33;4.73;;;1.70;;
33876;SDS011;20166;51.738;7.158;2024-01-27T00:17:19;4.17;;;1.97;;
33876;SDS011;20166;51.738;7.158;2024-01-27T00:20:09;12.73;;;2.57;;
33876;SDS011;20166;51.738;7.158;2024-01-27T00:22:56;3.87;;;1.93;;
33876;SDS011;20166;51.738;7.158;2024-01-27T00:25:44;1.20;;;1.10;;
33876;SDS011;20166;51.738;7.158;2024-01-27T00:28:30;4.80;;;2.00;;
33876;SDS011;20166;51.738;7.158;2024-01-27T00:31:16;8.87;;;2.30;;
33876;SDS011;20166;51.738;7.158;2024-01-27T00:34:03;4.43;;;1.80;;
33876;SDS011;20166;51.738;7.158;2024-01-27T00:36:49;4.80;;;1.90;;
33876;SDS011;20166;51.738;7.158;2024-01-27T00:39:35;5.53;;;1.70;;
33876;SDS011;20166;51.738;7.158;2024-01-27T00:42:23;4.83;;;1.53;;
33876;SDS011;20166;51.738;7.158;2024-01-27T00:45:09;5.10;;;2.00;;
33876;SDS011;20166;51.738;7.158;2024-01-27T00:47:56;3.80;;;2.10;;
33876;SDS011;20166;51.738;7.158;2024-01-27T00:50:43;3.23;;;1.87;;
33876;SDS011;20166;51.738;7.158;2024-01-27T00:53:29;4.83;;;2.07;;
33876;SDS011;20166;51.738;7.158;2024-01-27T00:56:16;7.67;;;2.40;;
33876;SDS011;20166;51.738;7.158;2024-01-27T00:59:04;2.13;;;1.93;;
33876;SDS011;20166;51.738;7.158;2024-01-27T01:01:50;1.80;;;1.70;;
33876;SDS011;20166;51.738;7.158;2024-01-27T01:04:37;8.40;;;1.97;;
33876;SDS011;20166;51.738;7.158;2024-01-27T01:07:23;3.07;;;2.37;;
33876;SDS011;20166;51.738;7.158;2024-01-27T01:10:10;1.57;;;1.33;;
33876;SDS011;20166;51.738;7.158;2024-01-27T01:12:56;5.33;;;2.03;;
33876;SDS011;20166;51.738;7.158;2024-01-27T01:15:43;10.53;;;2.00;;
33876;SDS011;20166;51.738;7.158;2024-01-27T01:18:30;3.00;;;2.27;;
33876;SDS011;20166;51.738;7.158;2024-01-27T01:21:17;9.87;;;1.97;;
33876;SDS011;20166;51.738;7.158;2024-01-27T01:24:04;2.23;;;1.90;;
33876;SDS011;20166;51.738;7.158;2024-01-27T01:26:51;1.57;;;1.47;;
33876;SDS011;20166;51.738;7.158;2024-01-27T01:29:37;3.73;;;2.10;;
33876;SDS011;20166;51.738;7.158;2024-01-27T01:32:25;2.80;;;1.80;;
33876;SDS011;20166;51.738;7.158;2024-01-27T01:35:11;1.40;;;1.30;;
33876;SDS011;20166;51.738;7.158;2024-01-27T01:37:57;6.13;;;2.03;;
33876;SDS011;20166;51.738;7.158;2024-01-27T01:40:44;4.60;;;1.87;;
33876;SDS011;20166;51.738;7.158;2024-01-27T01:43:30;5.83;;;2.23;;
33876;SDS011;20166;51.738;7.158;2024-01-27T01:46:16;4.57;;;1.73;;
33876;SDS011;20166;51.738;7.158;2024-01-27T01:49:04;1.30;;;1.13;;
33876;SDS011;20166;51.738;7.158;2024-01-27T01:51:51;2.00;;;1.50;;
33876;SDS011;20166;51.738;7.158;2024-01-27T01:54:37;6.90;;;2.53;;
33876;SDS011;20166;51.738;7.158;2024-01-27T01:57:24;2.13;;;1.93;;
33876;SDS011;20166;51.738;7.158;2024-01-27T02:00:11;3.17;;;2.27;;
33876;SDS011;20166;51.738;7.158;2024-01-27T02:02:58;3.80;;;2.33;;
33876;SDS011;20166;51.738;7.158;2024-01-27T02:05:46;4.10;;;1.53;;
33876;SDS011;20166;51.738;7.158;2024-01-27T02:08:33;2.50;;;2.00;;
33876;SDS011;20166;51.738;7.158;2024-01-27T02:11:19;1.70;;;1.60;;
33876;SDS011;20166;51.738;7.158;2024-01-27T02:14:05;1.80;;;1.60;;
33876;SDS011;20166;51.738;7.158;2024-01-27T02:16:52;6.60;;;2.13;;
33876;SDS011;20166;51.738;7.158;2024-01-27T02:19:39;1.87;;;1.77;;
33876;SDS011;20166;51.738;7.158;2024-01-27T02:22:26;3.87;;;2.43;;
33876;SDS011;20166;51.738;7.158;2024-01-27T02:25:14;4.77;;;2.50;;
33876;SDS011;20166;51.738;7.158;2024-01-27T02:28:00;4.37;;;2.73;;
33876;SDS011;20166;51.738;7.158;2024-01-27T02:30:48;5.50;;;1.70;;
33876;SDS011;20166;51.738;7.158;2024-01-27T02:33:34;2.13;;;1.93;;
33876;SDS011;20166;51.738;7.158;2024-01-27T02:36:20;3.60;;;2.33;;
33876;SDS011;20166;51.738;7.158;2024-01-27T02:39:06;6.60;;;2.50;;
33876;SDS011;20166;51.738;7.158;2024-01-27T02:41:54;8.43;;;1.83;;
33876;SDS011;20166;51.738;7.158;2024-01-27T02:44:41;4.10;;;2.43;;
33876;SDS011;20166;51.738;7.158;2024-01-27T02:47:27;3.53;;;2.30;;
33876;SDS011;20166;51.738;7.158;2024-01-27T02:50:14;1.83;;;1.70;;
33876;SDS011;20166;51.738;7.158;2024-01-27T02:53:00;4.47;;;2.43;;
33876;SDS011;20166;51.738;7.158;2024-01-27T02:55:47;2.43;;;1.77;;
33876;SDS011;20166;51.738;7.158;2024-01-27T02:58:35;3.27;;;2.20;;
33876;SDS011;20166;51.738;7.158;2024-01-27T03:01:21;4.03;;;2.37;;
33876;SDS011;20166;51.738;7.158;2024-01-27T03:04:07;3.13;;;1.93;;
33876;SDS011;20166;51.738;7.158;2024-01-27T03:06:54;3.33;;;2.00;;
33876;SDS011;20166;51.738;7.158;2024-01-27T03:09:40;4.73;;;2.93;;
33876;SDS011;20166;51.738;7.158;2024-01-27T03:12:27;4.10;;;2.07;;
33876;SDS011;20166;51.738;7.158;2024-01-27T03:15:15;9.20;;;2.83;;
33876;SDS011;20166;51.738;7.158;2024-01-27T03:18:01;4.13;;;2.10;;
33876;SDS011;20166;51.738;7.158;2024-01-27T03:20:48;2.50;;;2.27;;
33876;SDS011;20166;51.738;7.158;2024-01-27T03:23:34;4.10;;;2.40;;
33876;SDS011;20166;51.738;7.158;2024-01-27T03:26:21;2.57;;;2.33;;
33876;SDS011;20166;51.738;7.158;2024-01-27T03:29:07;4.70;;;3.07;;
33876;SDS011;20166;51.738;7.158;2024-01-27T03:31:55;16.67;;;2.80;;
33876;SDS011;20166;51.738;7.158;2024-01-27T03:34:43;5.27;;;2.90;;
33876;SDS011;20166;51.738;7.158;2024-01-27T03:37:29;3.40;;;2.73;;
33876;SDS011;20166;51.738;7.158;2024-01-27T03:40:16;8.27;;;3.27;;
33876;SDS011;20166;51.738;7.158;2024-01-27T03:43:03;8.10;;;2.67;;
33876;SDS011;20166;51.738;7.158;2024-01-27T03:45:49;1.77;;;1.67;;
33876;SDS011;20166;51.738;7.158;2024-01-27T03:48:37;6.60;;;2.67;;
33876;SDS011;20166;51.738;7.158;2024-01-27T03:51:24;4.43;;;2.60;;
33876;SDS011;20166;51.738;7.158;2024-01-27T03:54:11;5.00;;;3.20;;
33876;SDS011;20166;51.738;7.158;2024-01-27T03:56:57;6.23;;;2.70;;
33876;SDS011;20166;51.738;7.158;2024-01-27T03:59:43;5.03;;;2.50;;
33876;SDS011;20166;51.738;7.158;2024-01-27T04:02:29;3.20;;;2.90;;
33876;SDS011;20166;51.738;7.158;2024-01-27T04:05:17;4.43;;;2.57;;
33876;SDS011;20166;51.738;7.158;2024-01-27T04:08:04;4.80;;;2.87;;
33876;SDS011;20166;51.738;7.158;2024-01-27T04:10:51;4.33;;;2.27;;
33876;SDS011;20166;51.738;7.158;2024-01-27T04:13:37;8.27;;;4.00;;
33876;SDS011;20166;51.738;7.158;2024-01-27T04:16:23;4.40;;;2.77;;
33876;SDS011;20166;51.738;7.158;2024-01-27T04:19:09;2.80;;;2.23;;
33876;SDS011;20166;51.738;7.158;2024-01-27T04:21:57;4.10;;;2.37;;
33876;SDS011;20166;51.738;7.158;2024-01-27T04:24:43;10.87;;;3.10;;
33876;SDS011;20166;51.738;7.158;2024-01-27T04:27:30;3.07;;;2.73;;
33876;SDS011;20166;51.738;7.158;2024-01-27T04:30:17;3.73;;;2.60;;
33876;SDS011;20166;51.738;7.158;2024-01-27T04:33:03;4.20;;;2.40;;
33876;SDS011;20166;51.738;7.158;2024-01-27T04:35:52;7.53;;;3.30;;
33876;SDS011;20166;51.738;7.158;2024-01-27T04:38:39;15.17;;;3.30;;
33876;SDS011;20166;51.738;7.158;2024-01-27T04:41:25;4.83;;;2.20;;
33876;SDS011;20166;51.738;7.158;2024-01-27T04:44:12;5.40;;;3.10;;
33876;SDS011;20166;51.738;7.158;2024-01-27T04:46:58;9.83;;;3.57;;
33876;SDS011;20166;51.738;7.158;2024-01-27T04:49:44;8.23;;;3.97;;
33876;SDS011;20166;51.738;7.158;2024-01-27T04:52:31;7.73;;;3.50;;
33876;SDS011;20166;51.738;7.158;2024-01-27T04:55:18;14.50;;;3.13;;
33876;SDS011;20166;51.738;7.158;2024-01-27T04:58:07;6.40;;;3.90;;
33876;SDS011;20166;51.738;7.158;2024-01-27T05:00:53;14.13;;;3.23;;
33876;SDS011;20166;51.738;7.158;2024-01-27T05:03:39;4.37;;;3.80;;
33876;SDS011;20166;51.738;7.158;2024-01-27T05:06:26;7.30;;;3.20;;
33876;SDS011;20166;51.738;7.158;2024-01-27T05:09:12;9.77;;;4.00;;
33876;SDS011;20166;51.738;7.158;2024-01-27T05:12:00;9.53;;;2.90;;
33876;SDS011;20166;51.738;7.158;2024-01-27T05:14:47;7.17;;;2.93;;
33876;SDS011;20166;51.738;7.158;2024-01-27T05:17:34;3.37;;;2.90;;
33876;SDS011;20166;51.738;7.158;2024-01-27T05:20:23;11.23;;;3.60;;
33876;SDS011;20166;51.738;7.158;2024-01-27T05:23:09;6.23;;;2.80;;
33876;SDS011;20166;51.738;7.158;2024-01-27T05:25:56;3.93;;;3.00;;
33876;SDS011;20166;51.738;7.158;2024-01-27T05:28:43;5.27;;;3.50;;
33876;SDS011;20166;51.738;7.158;2024-01-27T05:31:29;9.93;;;3.47;;
33876;SDS011;20166;51.738;7.158;2024-01-27T05:34:16;7.57;;;3.40;;
33876;SDS011;20166;51.738;7.158;2024-01-27T05:37:02;5.07;;;3.40;;
33876;SDS011;20166;51.738;7.158;2024-01-27T05:39:52;8.17;;;3.53;;
33876;SDS011;20166;51.738;7.158;2024-01-27T05:42:38;5.50;;;3.43;;
33876;SDS011;20166;51.738;7.158;2024-01-27T05:45:28;8.77;;;3.20;;
33876;SDS011;20166;51.738;7.158;2024-01-27T05:48:16;5.03;;;3.73;;
33876;SDS011;20166;51.738;7.158;2024-01-27T05:51:02;12.57;;;5.43;;
33876;SDS011;20166;51.738;7.158;2024-01-27T05:53:49;5.23;;;3.60;;
33876;SDS011;20166;51.738;7.158;2024-01-27T05:56:35;5.33;;;3.20;;
33876;SDS011;20166;51.738;7.158;2024-01-27T05:59:23;3.80;;;3.13;;
33876;SDS011;20166;51.738;7.158;2024-01-27T06:02:12;5.67;;;3.50;;
33876;SDS011;20166;51.738;7.158;2024-01-27T06:04:59;10.10;;;3.17;;
33876;SDS011;20166;51.738;7.158;2024-01-27T06:07:45;4.33;;;3.00;;
33876;SDS011;20166;51.738;7.158;2024-01-27T06:10:32;4.50;;;2.70;;
33876;SDS011;20166;51.738;7.158;2024-01-27T06:13:21;4.47;;;3.80;;
33876;SDS011;20166;51.738;7.158;2024-01-27T06:16:08;6.70;;;3.60;;
33876;SDS011;20166;51.738;7.158;2024-01-27T06:18:56;5.33;;;3.70;;
33876;SDS011;20166;51.738;7.158;2024-01-27T06:21:42;5.17;;;3.90;;
33876;SDS011;20166;51.738;7.158;2024-01-27T06:24:31;5.23;;;3.37;;
33876;SDS011;20166;51.738;7.158;2024-01-27T06:27:18;3.43;;;3.13;;
33876;SDS011;20166;51.738;7.158;2024-01-27T06:30:05;10.70;;;4.17;;
33876;SDS011;20166;51.738;7.158;2024-01-27T06:32:55;5.40;;;3.93;;
33876;SDS011;20166;51.738;7.158;2024-01-27T06:35:42;4.83;;;3.33;;
33876;SDS011;20166;51.738;7.158;2024-01-27T06:38:29;5.53;;;3.50;;
33876;SDS011;20166;51.738;7.158;2024-01-27T06:41:16;3.67;;;3.20;;
33876;SDS011;20166;51.738;7.158;2024-01-27T06:44:03;5.30;;;3.77;;
33876;SDS011;20166;51.738;7.158;2024-01-27T06:46:49;4.03;;;3.50;;
33876;SDS011;20166;51.738;7.158;2024-01-27T06:49:36;8.53;;;3.50;;
33876;SDS011;20166;51.738;7.158;2024-01-27T06:52:27;8.93;;;4.27;;
33876;SDS011;20166;51.738;7.158;2024-01-27T06:55:15;4.50;;;3.50;;
33876;SDS011;20166;51.738;7.158;2024-01-27T06:58:04;6.57;;;3.37;;
33876;SDS011;20166;51.738;7.158;2024-01-27T07:00:53;4.77;;;3.43;;
33876;SDS011;20166;51.738;7.158;2024-01-27T07:03:39;5.33;;;4.20;;
33876;SDS011;20166;51.738;7.158;2024-01-27T07:06:26;6.00;;;3.27;;
33876;SDS011;20166;51.738;7.158;2024-01-27T07:09:13;3.57;;;3.27;;
33876;SDS011;20166;51.738;7.158;2024-01-27T07:12:00;6.77;;;4.37;;
33876;SDS011;20166;51.738;7.158;2024-01-27T07:14:47;4.10;;;3.37;;
33876;SDS011;20166;51.738;7.158;2024-01-27T07:17:33;4.77;;;3.67;;
33876;SDS011;20166;51.738;7.158;2024-01-27T07:20:19;5.30;;;3.33;;
33876;SDS011;20166;51.738;7.158;2024-01-27T07:23:08;3.87;;;3.17;;
33876;SDS011;20166;51.738;7.158;2024-01-27T07:25:55;7.17;;;3.13;;
33876;SDS011;20166;51.738;7.158;2024-01-27T07:28:42;7.03;;;3.87;;
33876;SDS011;20166;51.738;7.158;2024-01-27T07:31:28;10.50;;;4.33;;
33876;SDS011;20166;51.738;7.158;2024-01-27T07:34:16;10.80;;;3.53;;
33876;SDS011;20166;51.738;7.158;2024-01-27T07:37:02;5.60;;;3.07;;
33876;SDS011;20166;51.738;7.158;2024-01-27T07:39:49;7.83;;;4.23;;
33876;SDS011;20166;51.738;7.158;2024-01-27T07:42:37;5.87;;;3.53;;
33876;SDS011;20166;51.738;7.158;2024-01-27T07:45:23;4.73;;;3.73;;
33876;SDS011;20166;51.738;7.158;2024-01-27T07:48:09;7.07;;;3.83;;
33876;SDS011;20166;51.738;7.158;2024-01-27T07:50:56;5.77;;;4.33;;
33876;SDS011;20166;51.738;7.158;2024-01-27T07:53:42;7.80;;;4.00;;
33876;SDS011;20166;51.738;7.158;2024-01-27T07:56:29;5.90;;;4.07;;
33876;SDS011;20166;51.738;7.158;2024-01-27T07:59:17;3.87;;;3.10;;
33876;SDS011;20166;51.738;7.158;2024-01-27T08:02:03;5.50;;;4.13;;
33876;SDS011;20166;51.738;7.158;2024-01-27T08:04:50;5.80;;;4.33;;
33876;SDS011;20166;51.738;7.158;2024-01-27T08:07:36;6.90;;;4.17;;
33876;SDS011;20166;51.738;7.158;2024-01-27T08:10:23;10.40;;;4.13;;
33876;SDS011;20166;51.738;7.158;2024-01-27T08:13:09;3.73;;;3.20;;
33876;SDS011;20166;51.738;7.158;2024-01-27T08:15:57;7.60;;;4.33;;
33876;SDS011;20166;51.738;7.158;2024-01-27T08:18:43;5.17;;;3.13;;
33876;SDS011;20166;51.738;7.158;2024-01-27T08:21:30;10.40;;;4.60;;
33876;SDS011;20166;51.738;7.158;2024-01-27T08:24:17;7.97;;;3.70;;
33876;SDS011;20166;51.738;7.158;2024-01-27T08:27:03;7.73;;;3.67;;
33876;SDS011;20166;51.738;7.158;2024-01-27T08:29:50;5.80;;;3.70;;
33876;SDS011;20166;51.738;7.158;2024-01-27T08:32:40;8.93;;;4.53;;
33876;SDS011;20166;51.738;7.158;2024-01-27T08:35:27;6.50;;;3.50;;
33876;SDS011;20166;51.738;7.158;2024-01-27T08:38:13;6.23;;;3.93;;
33876;SDS011;20166;51.738;7.158;2024-01-27T08:40:59;6.77;;;3.63;;
33876;SDS011;20166;51.738;7.158;2024-01-27T08:43:45;5.63;;;3.43;;
33876;SDS011;20166;51.738;7.158;2024-01-27T08:46:31;6.20;;;3.87;;
33876;SDS011;20166;51.738;7.158;2024-01-27T08:49:19;8.27;;;4.13;;
33876;SDS011;20166;51.738;7.158;2024-01-27T08:52:06;5.67;;;3.77;;
33876;SDS011;20166;51.738;7.158;2024-01-27T08:54:52;8.30;;;4.33;;
33876;SDS011;20166;51.738;7.158;2024-01-27T08:57:39;7.73;;;4.60;;
33876;SDS011;20166;51.738;7.158;2024-01-27T09:00:25;6.73;;;4.30;;
33876;SDS011;20166;51.738;7.158;2024-01-27T09:03:11;6.40;;;4.37;;
33876;SDS011;20166;51.738;7.158;2024-01-27T09:06:00;11.53;;;5.03;;
33876;SDS011;20166;51.738;7.158;2024-01-27T09:08:47;5.70;;;3.83;;
33876;SDS011;20166;51.738;7.158;2024-01-27T09:11:33;7.87;;;4.90;;
33876;SDS011;20166;51.738;7.158;2024-01-27T09:14:20;5.40;;;4.10;;
33876;SDS011;20166;51.738;7.158;2024-01-27T09:17:06;9.87;;;5.00;;
33876;SDS011;20166;51.738;7.158;2024-01-27T09:19:52;7.97;;;3.53;;
33876;SDS011;20166;51.738;7.158;2024-01-27T09:22:40;7.40;;;5.30;;
33876;SDS011;20166;51.738;7.158;2024-01-27T09:25:27;6.80;;;4.07;;
33876;SDS011;20166;51.738;7.158;2024-01-27T09:28:14;9.07;;;5.23;;
33876;SDS011;20166;51.738;7.158;2024-01-27T09:31:01;16.43;;;5.10;;
33876;SDS011;20166;51.738;7.158;2024-01-27T09:33:48;10.07;;;6.57;;
33876;SDS011;20166;51.738;7.158;2024-01-27T09:36:34;10.47;;;6.03;;
33876;SDS011;20166;51.738;7.158;2024-01-27T09:39:23;7.13;;;4.27;;
33876;SDS011;20166;51.738;7.158;2024-01-27T09:42:09;10.60;;;5.03;;
33876;SDS011;20166;51.738;7.158;2024-01-27T09:44:59;12.93;;;5.77;;
33876;SDS011;20166;51.738;7.158;2024-01-27T09:47:48;11.37;;;5.50;;
33876;SDS011;20166;51.738;7.158;2024-01-27T09:50:35;14.97;;;5.20;;
33876;SDS011;20166;51.738;7.158;2024-01-27T09:53:22;17.03;;;5.37;;
33876;SDS011;20166;51.738;7.158;2024-01-27T09:56:09;9.23;;;5.20;;
33876;SDS011;20166;51.738;7.158;2024-01-27T09:59:02;11.73;;;4.40;;
33876;SDS011;20166;51.738;7.158;2024-01-27T10:01:51;10.57;;;5.03;;
33876;SDS011;20166;51.738;7.158;2024-01-27T10:04:38;6.77;;;4.10;;
33876;SDS011;20166;51.738;7.158;2024-01-27T10:07:26;13.60;;;4.73;;
33876;SDS011;20166;51.738;7.158;2024-01-27T10:10:13;8.30;;;4.40;;
33876;SDS011;20166;51.738;7.158;2024-01-27T10:13:01;11.63;;;5.17;;
33876;SDS011;20166;51.738;7.158;2024-01-27T10:15:58;9.70;;;4.67;;
33876;SDS011;20166;51.738;7.158;2024-01-27T10:18:45;8.13;;;5.30;;
33876;SDS011;20166;51.738;7.158;2024-01-27T10:21:33;12.73;;;5.03;;
33876;SDS011;20166;51.738;7.158;2024-01-27T10:24:20;7.07;;;4.50;;
33876;SDS011;20166;51.738;7.158;2024-01-27T10:27:07;11.90;;;5.17;;
33876;SDS011;20166;51.738;7.158;2024-01-27T10:29:54;18.23;;;4.77;;
33876;SDS011;20166;51.738;7.158;2024-01-27T10:32:41;9.60;;;5.10;;
33876;SDS011;20166;51.738;7.158;2024-01-27T10:35:27;12.07;;;5.37;;
33876;SDS011;20166;51.738;7.158;2024-01-27T10:38:13;9.67;;;4.43;;
33876;SDS011;20166;51.738;7.158;2024-01-27T10:41:00;9.70;;;4.63;;
33876;SDS011;20166;51.738;7.158;2024-01-27T10:43:47;11.57;;;4.33;;
33876;SDS011;20166;51.738;7.158;2024-01-27T10:46:37;16.10;;;4.67;;
33876;SDS011;20166;51.738;7.158;2024-01-27T10:49:23;16.50;;;4.87;;
33876;SDS011;20166;51.738;7.158;2024-01-27T10:52:11;24.63;;;5.07;;
33876;SDS011;20166;51.738;7.158;2024-01-27T10:55:00;10.27;;;4.57;;
33876;SDS011;20166;51.738;7.158;2024-01-27T10:57:48;12.63;;;4.57;;
33876;SDS011;20166;51.738;7.158;2024-01-27T11:00:36;15.30;;;4.50;;
33876;SDS011;20166;51.738;7.158;2024-01-27T11:03:24;10.60;;;4.10;;
33876;SDS011;20166;51.738;7.158;2024-01-27T11:06:12;7.30;;;3.63;;
33876;SDS011;20166;51.738;7.158;2024-01-27T11:08:59;9.70;;;3.77;;
33876;SDS011;20166;51.738;7.158;2024-01-27T11:11:46;12.83;;;3.80;;
33876;SDS011;20166;51.738;7.158;2024-01-27T11:14:33;10.23;;;4.20;;
33876;SDS011;20166;51.738;7.158;2024-01-27T11:17:19;8.13;;;4.00;;
33876;SDS011;20166;51.738;7.158;2024-01-27T11:20:07;11.07;;;4.40;;
33876;SDS011;20166;51.738;7.158;2024-01-27T11:23:06;9.23;;;3.57;;
33876;SDS011;20166;51.738;7.158;2024-01-27T11:26:01;12.67;;;3.83;;
33876;SDS011;20166;51.738;7.158;2024-01-27T11:28:48;13.57;;;5.30;;
33876;SDS011;20166;51.738;7.158;2024-01-27T11:31:35;12.60;;;3.50;;
33876;SDS011;20166;51.738;7.158;2024-01-27T11:34:21;5.13;;;2.90;;
33876;SDS011;20166;51.738;7.158;2024-01-27T11:37:13;10.53;;;3.90;;
33876;SDS011;20166;51.738;7.158;2024-01-27T11:40:04;16.27;;;4.73;;
33876;SDS011;20166;51.738;7.158;2024-01-27T11:42:55;8.80;;;4.07;;
33876;SDS011;20166;51.738;7.158;2024-01-27T11:45:42;10.10;;;4.03;;
33876;SDS011;20166;51.738;7.158;2024-01-27T11:48:28;12.27;;;3.80;;
33876;SDS011;20166;51.738;7.158;2024-01-27T11:51:15;6.87;;;3.60;;
33876;SDS011;20166;51.738;7.158;2024-01-27T11:54:03;7.17;;;3.10;;
33876;SDS011;20166;51.738;7.158;2024-01-27T11:56:49;8.63;;;4.33;;
33876;SDS011;20166;51.738;7.158;2024-01-27T11:59:36;14.23;;;4.90;;
33876;SDS011;20166;51.738;7.158;2024-01-27T12:02:22;12.93;;;4.60;;
33876;SDS011;20166;51.738;7.158;2024-01-27T12:05:09;8.77;;;3.83;;
33876;SDS011;20166;51.738;7.158;2024-01-27T12:07:55;9.63;;;3.63;;
33876;SDS011;20166;51.738;7.158;2024-01-27T12:10:43;13.07;;;4.33;;
33876;SDS011;20166;51.738;7.158;2024-01-27T12:13:30;11.53;;;4.03;;
33876;SDS011;20166;51.738;7.158;2024-01-27T12:16:16;7.23;;;3.90;;
33876;SDS011;20166;51.738;7.158;2024-01-27T12:19:02;17.07;;;4.37;;
33876;SDS011;20166;51.738;7.158;2024-01-27T12:21:49;13.77;;;4.83;;
33876;SDS011;20166;51.738;7.158;2024-01-27T12:24:35;7.73;;;3.70;;
33876;SDS011;20166;51.738;7.158;2024-01-27T12:27:23;11.10;;;4.67;;
33876;SDS011;20166;51.738;7.158;2024-01-27T12:30:09;9.53;;;3.83;;
33876;SDS011;20166;51.738;7.158;2024-01-27T12:32:56;8.80;;;4.30;;
33876;SDS011;20166;51.738;7.158;2024-01-27T12:35:42;10.37;;;4.13;;
33876;SDS011;20166;51.738;7.158;2024-01-27T12:38:29;6.40;;;3.57;;
33876;SDS011;20166;51.738;7.158;2024-01-27T12:41:15;13.87;;;3.70;;
33876;SDS011;20166;51.738;7.158;2024-01-27T12:44:03;13.47;;;4.07;;
33876;SDS011;20166;51.738;7.158;2024-01-27T12:46:50;6.87;;;3.50;;
33876;SDS011;20166;51.738;7.158;2024-01-27T12:49:36;7.90;;;3.20;;
33876;SDS011;20166;51.738;7.158;2024-01-27T12:52:24;8.03;;;3.87;;
33876;SDS011;20166;51.738;7.158;2024-01-27T12:55:10;7.07;;;3.13;;
33876;SDS011;20166;51.738;7.158;2024-01-27T12:57:56;8.73;;;3.10;;
33876;SDS011;20166;51.738;7.158;2024-01-27T13:00:44;9.13;;;3.57;;
33876;SDS011;20166;51.738;7.158;2024-01-27T13:03:31;11.80;;;3.23;;
33876;SDS011;20166;51.738;7.158;2024-01-27T13:06:17;7.27;;;3.27;;
33876;SDS011;20166;51.738;7.158;2024-01-27T13:09:05;11.70;;;3.43;;
33876;SDS011;20166;51.738;7.158;2024-01-27T13:11:52;3.90;;;2.50;;
33876;SDS011;20166;51.738;7.158;2024-01-27T13:14:38;7.73;;;3.27;;
33876;SDS011;20166;51.738;7.158;2024-01-27T13:17:26;8.93;;;3.40;;
33876;SDS011;20166;51.738;7.158;2024-01-27T13:20:12;10.93;;;3.40;;
33876;SDS011;20166;51.738;7.158;2024-01-27T13:23:03;11.10;;;3.03;;
33876;SDS011;20166;51.738;7.158;2024-01-27T13:25:49;6.47;;;2.90;;
33876;SDS011;20166;51.738;7.158;2024-01-27T13:28:56;7.73;;;2.90;;
33876;SDS011;20166;51.738;7.158;2024-01-27T13:31:42;4.87;;;2.47;;
33876;SDS011;20166;51.738;7.158;2024-01-27T13:34:30;4.33;;;2.20;;
33876;SDS011;20166;51.738;7.158;2024-01-27T13:37:18;8.97;;;3.27;;
33876;SDS011;20166;51.738;7.158;2024-01-27T13:40:04;9.97;;;3.30;;
33876;SDS011;20166;51.738;7.158;2024-01-27T13:42:52;5.23;;;3.13;;
33876;SDS011;20166;51.738;7.158;2024-01-27T13:45:39;9.03;;;3.00;;
33876;SDS011;20166;51.738;7.158;2024-01-27T13:48:25;5.50;;;2.17;;
33876;SDS011;20166;51.738;7.158;2024-01-27T13:51:13;5.97;;;2.60;;
33876;SDS011;20166;51.738;7.158;2024-01-27T13:54:00;7.00;;;2.50;;
33876;SDS011;20166;51.738;7.158;2024-01-27T13:56:47;3.10;;;2.20;;
33876;SDS011;20166;51.738;7.158;2024-01-27T13:59:33;6.10;;;2.30;;
33876;SDS011;20166;51.738;7.158;2024-01-27T14:02:20;7.70;;;2.83;;
33876;SDS011;20166;51.738;7.158;2024-01-27T14:05:07;7.30;;;2.17;;
33876;SDS011;20166;51.738;7.158;2024-01-27T14:07:55;7.43;;;2.50;;
33876;SDS011;20166;51.738;7.158;2024-01-27T14:10:41;5.33;;;2.20;;
33876;SDS011;20166;51.738;7.158;2024-01-27T14:13:28;6.17;;;2.50;;
33876;SDS011;20166;51.738;7.158;2024-01-27T14:16:14;7.33;;;2.43;;
33876;SDS011;20166;51.738;7.158;2024-01-27T14:19:04;7.97;;;2.73;;
33876;SDS011;20166;51.738;7.158;2024-01-27T14:21:52;6.87;;;2.30;;
33876;SDS011;20166;51.738;7.158;2024-01-27T14:24:40;11.13;;;2.40;;
33876;SDS011;20166;51.738;7.158;2024-01-27T14:27:26;6.13;;;2.13;;
33876;SDS011;20166;51.738;7.158;2024-01-27T14:30:13;5.37;;;2.57;;
33876;SDS011;20166;51.738;7.158;2024-01-27T14:33:00;4.07;;;1.63;;
33876;SDS011;20166;51.738;7.158;2024-01-27T14:35:46;7.47;;;1.83;;
33876;SDS011;20166;51.738;7.158;2024-01-27T14:38:33;7.73;;;2.10;;
33876;SDS011;20166;51.738;7.158;2024-01-27T14:41:21;6.20;;;2.70;;
33876;SDS011;20166;51.738;7.158;2024-01-27T14:44:08;6.97;;;2.13;;
33876;SDS011;20166;51.738;7.158;2024-01-27T14:46:56;2.97;;;1.83;;
33876;SDS011;20166;51.738;7.158;2024-01-27T14:49:42;6.47;;;1.67;;
33876;SDS011;20166;51.738;7.158;2024-01-27T14:52:30;5.80;;;2.63;;
33876;SDS011;20166;51.738;7.158;2024-01-27T14:55:16;3.83;;;1.97;;
33876;SDS011;20166;51.738;7.158;2024-01-27T14:58:04;3.47;;;1.83;;
33876;SDS011;20166;51.738;7.158;2024-01-27T15:00:50;10.77;;;2.47;;
33876;SDS011;20166;51.738;7.158;2024-01-27T15:03:38;6.63;;;2.07;;
33876;SDS011;20166;51.738;7.158;2024-01-27T15:06:24;4.73;;;1.93;;
33876;SDS011;20166;51.738;7.158;2024-01-27T15:09:11;5.23;;;2.13;;
33876;SDS011;20166;51.738;7.158;2024-01-27T15:12:00;5.33;;;2.23;;
33876;SDS011;20166;51.738;7.158;2024-01-27T15:14:48;6.10;;;1.90;;
33876;SDS011;20166;51.738;7.158;2024-01-27T15:17:34;3.80;;;1.60;;
33876;SDS011;20166;51.738;7.158;2024-01-27T15:20:21;4.67;;;1.67;;
33876;SDS011;20166;51.738;7.158;2024-01-27T15:23:07;1.77;;;1.40;;
33876;SDS011;20166;51.738;7.158;2024-01-27T15:25:53;1.73;;;1.30;;
33876;SDS011;20166;51.738;7.158;2024-01-27T15:28:39;2.80;;;1.40;;
33876;SDS011;20166;51.738;7.158;2024-01-27T15:31:27;7.70;;;2.07;;
33876;SDS011;20166;51.738;7.158;2024-01-27T15:34:13;2.13;;;1.60;;
33876;SDS011;20166;51.738;7.158;2024-01-27T15:37:00;4.53;;;1.70;;
33876;SDS011;20166;51.738;7.158;2024-01-27T15:39:46;1.70;;;1.50;;
33876;SDS011;20166;51.738;7.158;2024-01-27T15:42:33;3.53;;;1.50;;
33876;SDS011;20166;51.738;7.158;2024-01-27T15:45:19;3.30;;;1.47;;
33876;SDS011;20166;51.738;7.158;2024-01-27T15:48:07;5.10;;;1.40;;
33876;SDS011;20166;51.738;7.158;2024-01-27T15:50:57;2.47;;;1.60;;
33876;SDS011;20166;51.738;7.158;2024-01-27T15:53:44;4.97;;;1.80;;
33876;SDS011;20166;51.738;7.158;2024-01-27T15:56:30;1.90;;;1.30;;
33876;SDS011;20166;51.738;7.158;2024-01-27T15:59:17;9.27;;;1.90;;
33876;SDS011;20166;51.738;7.158;2024-01-27T16:02:03;3.07;;;1.40;;
33876;SDS011;20166;51.738;7.158;2024-01-27T16:04:51;9.03;;;1.97;;
33876;SDS011;20166;51.738;7.158;2024-01-27T16:07:37;3.13;;;1.87;;
33876;SDS011;20166;51.738;7.158;2024-01-27T16:10:24;1.70;;;1.37;;
33876;SDS011;20166;51.738;7.158;2024-01-27T16:13:10;3.53;;;1.60;;
33876;SDS011;20166;51.738;7.158;2024-01-27T16:15:57;3.20;;;1.40;;
33876;SDS011;20166;51.738;7.158;2024-01-27T16:18:43;6.07;;;1.50;;
33876;SDS011;20166;51.738;7.158;2024-01-27T16:21:31;5.90;;;1.53;;
33876;SDS011;20166;51.738;7.158;2024-01-27T16:24:17;5.47;;;1.67;;
33876;SDS011;20166;51.738;7.158;2024-01-27T16:27:03;1.63;;;1.40;;
33876;SDS011;20166;51.738;7.158;2024-01-27T16:29:50;1.50;;;1.40;;
33876;SDS011;20166;51.738;7.158;2024-01-27T16:32:37;4.33;;;1.97;;
33876;SDS011;20166;51.738;7.158;2024-01-27T16:35:23;4.23;;;1.13;;
33876;SDS011;20166;51.738;7.158;2024-01-27T16:38:11;6.60;;;1.40;;
33876;SDS011;20166;51.738;7.158;2024-01-27T16:40:58;3.47;;;1.80;;
33876;SDS011;20166;51.738;7.158;2024-01-27T16:43:45;5.47;;;1.80;;